sensor_id;sensor_type;location;lat;lon;timestamp;P1;durP1;ratioP1;P2;durP2;ratioP2
23390;SDS011;11868;45.606;5.302;2022-09-29T00:00:38;8.52;;;1.20;;
23390;SDS011;11868;45.606;5.302;2022-09-29T00:03:04;2.85;;;1.20;;
23390;SDS011;11868;45.606;5.302;2022-09-29T00:05:30;2.78;;;1.30;;
23390;SDS011;11868;45.606;5.302;2022-09-29T00:07:55;5.25;;;1.30;;
23390;SDS011;11868;45.606;5.302;2022-09-29T00:10:21;3.42;;;1.70;;
23390;SDS011;11868;45.606;5.302;2022-09-29T00:12:47;2.67;;;1.33;;
23390;SDS011;11868;45.606;5.302;2022-09-29T00:15:13;12.05;;;2.08;;
23390;SDS011;11868;45.606;5.302;2022-09-29T00:17:38;3.25;;;1.60;;
23390;SDS011;11868;45.606;5.302;2022-09-29T00:20:04;3.33;;;1.52;;
23390;SDS011;11868;45.606;5.302;2022-09-29T00:22:31;5.32;;;1.90;;
23390;SDS011;11868;45.606;5.302;2022-09-29T00:24:56;2.97;;;1.30;;
23390;SDS011;11868;45.606;5.302;2022-09-29T00:27:22;3.17;;;1.00;;
23390;SDS011;11868;45.606;5.302;2022-09-29T00:29:47;2.15;;;1.00;;
23390;SDS011;11868;45.606;5.302;2022-09-29T00:32:12;2.22;;;0.95;;
23390;SDS011;11868;45.606;5.302;2022-09-29T00:34:38;4.80;;;1.40;;
23390;SDS011;11868;45.606;5.302;2022-09-29T00:37:03;2.65;;;1.33;;
23390;SDS011;11868;45.606;5.302;2022-09-29T00:39:29;1.50;;;1.10;;
23390;SDS011;11868;45.606;5.302;2022-09-29T00:41:54;3.47;;;1.40;;
23390;SDS011;11868;45.606;5.302;2022-09-29T00:49:25;2.28;;;1.40;;
23390;SDS011;11868;45.606;5.302;2022-09-29T00:54:20;2.35;;;1.60;;
23390;SDS011;11868;45.606;5.302;2022-09-29T00:56:46;2.88;;;1.30;;
23390;SDS011;11868;45.606;5.302;2022-09-29T00:59:15;1.25;;;1.00;;
23390;SDS011;11868;45.606;5.302;2022-09-29T01:01:45;1.88;;;1.13;;
23390;SDS011;11868;45.606;5.302;2022-09-29T01:04:12;1.20;;;0.70;;
23390;SDS011;11868;45.606;5.302;2022-09-29T01:06:40;1.58;;;0.70;;
23390;SDS011;11868;45.606;5.302;2022-09-29T01:11:34;3.97;;;1.15;;
23390;SDS011;11868;45.606;5.302;2022-09-29T01:14:01;2.53;;;0.85;;
23390;SDS011;11868;45.606;5.302;2022-09-29T01:16:30;3.20;;;0.73;;
23390;SDS011;11868;45.606;5.302;2022-09-29T01:18:57;2.13;;;0.80;;
23390;SDS011;11868;45.606;5.302;2022-09-29T01:21:40;1.20;;;1.10;;
23390;SDS011;11868;45.606;5.302;2022-09-29T01:40:24;1.60;;;0.63;;
23390;SDS011;11868;45.606;5.302;2022-09-29T01:42:56;2.72;;;0.70;;
23390;SDS011;11868;45.606;5.302;2022-09-29T01:46:03;3.80;;;0.82;;
23390;SDS011;11868;45.606;5.302;2022-09-29T01:48:35;1.17;;;0.60;;
23390;SDS011;11868;45.606;5.302;2022-09-29T01:51:08;2.70;;;0.80;;
23390;SDS011;11868;45.606;5.302;2022-09-29T01:53:39;1.55;;;0.93;;
23390;SDS011;11868;45.606;5.302;2022-09-29T01:56:08;1.95;;;1.25;;
23390;SDS011;11868;45.606;5.302;2022-09-29T01:58:41;2.38;;;1.23;;
23390;SDS011;11868;45.606;5.302;2022-09-29T02:01:11;8.05;;;1.67;;
23390;SDS011;11868;45.606;5.302;2022-09-29T02:03:55;3.33;;;1.52;;
23390;SDS011;11868;45.606;5.302;2022-09-29T02:06:23;1.17;;;1.00;;
23390;SDS011;11868;45.606;5.302;2022-09-29T02:08:55;2.95;;;1.13;;
23390;SDS011;11868;45.606;5.302;2022-09-29T02:11:21;1.05;;;0.90;;
23390;SDS011;11868;45.606;5.302;2022-09-29T02:16:38;1.10;;;0.63;;
23390;SDS011;11868;45.606;5.302;2022-09-29T02:19:09;1.42;;;0.90;;
23390;SDS011;11868;45.606;5.302;2022-09-29T02:21:40;1.00;;;0.77;;
23390;SDS011;11868;45.606;5.302;2022-09-29T02:24:07;1.08;;;0.70;;
23390;SDS011;11868;45.606;5.302;2022-09-29T02:26:33;0.85;;;0.80;;
23390;SDS011;11868;45.606;5.302;2022-09-29T02:29:00;2.30;;;0.80;;
23390;SDS011;11868;45.606;5.302;2022-09-29T02:31:26;2.63;;;0.90;;
23390;SDS011;11868;45.606;5.302;2022-09-29T02:33:51;0.70;;;0.40;;
23390;SDS011;11868;45.606;5.302;2022-09-29T02:44:16;3.05;;;0.70;;
23390;SDS011;11868;45.606;5.302;2022-09-29T02:46:52;0.90;;;0.40;;
23390;SDS011;11868;45.606;5.302;2022-09-29T02:54:54;2.88;;;0.50;;
23390;SDS011;11868;45.606;5.302;2022-09-29T03:00:23;0.93;;;0.50;;
23390;SDS011;11868;45.606;5.302;2022-09-29T03:02:49;2.08;;;0.50;;
23390;SDS011;11868;45.606;5.302;2022-09-29T03:05:15;4.80;;;0.52;;
23390;SDS011;11868;45.606;5.302;2022-09-29T03:07:43;0.50;;;0.45;;
23390;SDS011;11868;45.606;5.302;2022-09-29T03:10:09;1.08;;;0.50;;
23390;SDS011;11868;45.606;5.302;2022-09-29T03:12:35;0.43;;;0.38;;
23390;SDS011;11868;45.606;5.302;2022-09-29T03:15:01;1.23;;;0.30;;
23390;SDS011;11868;45.606;5.302;2022-09-29T03:17:27;3.75;;;0.50;;
23390;SDS011;11868;45.606;5.302;2022-09-29T03:19:52;0.95;;;0.30;;
23390;SDS011;11868;45.606;5.302;2022-09-29T03:22:18;1.85;;;0.40;;
23390;SDS011;11868;45.606;5.302;2022-09-29T03:24:43;0.77;;;0.30;;
23390;SDS011;11868;45.606;5.302;2022-09-29T03:27:09;0.45;;;0.30;;
23390;SDS011;11868;45.606;5.302;2022-09-29T03:29:35;4.03;;;0.40;;
23390;SDS011;11868;45.606;5.302;2022-09-29T03:32:01;3.78;;;0.50;;
23390;SDS011;11868;45.606;5.302;2022-09-29T03:34:26;1.42;;;0.40;;
23390;SDS011;11868;45.606;5.302;2022-09-29T03:36:52;0.45;;;0.45;;
23390;SDS011;11868;45.606;5.302;2022-09-29T03:39:17;0.85;;;0.50;;
23390;SDS011;11868;45.606;5.302;2022-09-29T03:41:42;0.40;;;0.40;;
23390;SDS011;11868;45.606;5.302;2022-09-29T03:44:08;1.30;;;0.55;;
23390;SDS011;11868;45.606;5.302;2022-09-29T03:46:33;1.80;;;0.38;;
23390;SDS011;11868;45.606;5.302;2022-09-29T03:48:59;0.82;;;0.40;;
23390;SDS011;11868;45.606;5.302;2022-09-29T03:51:24;0.52;;;0.40;;
23390;SDS011;11868;45.606;5.302;2022-09-29T03:53:49;0.68;;;0.50;;
23390;SDS011;11868;45.606;5.302;2022-09-29T03:56:16;1.20;;;0.50;;
23390;SDS011;11868;45.606;5.302;2022-09-29T03:58:41;2.92;;;0.70;;
23390;SDS011;11868;45.606;5.302;2022-09-29T04:01:07;0.65;;;0.40;;
23390;SDS011;11868;45.606;5.302;2022-09-29T04:03:32;2.15;;;0.38;;
23390;SDS011;11868;45.606;5.302;2022-09-29T04:05:58;1.20;;;0.60;;
23390;SDS011;11868;45.606;5.302;2022-09-29T04:08:23;0.50;;;0.50;;
23390;SDS011;11868;45.606;5.302;2022-09-29T04:10:49;0.63;;;0.50;;
23390;SDS011;11868;45.606;5.302;2022-09-29T04:13:14;1.40;;;0.50;;
23390;SDS011;11868;45.606;5.302;2022-09-29T04:15:39;0.60;;;0.50;;
23390;SDS011;11868;45.606;5.302;2022-09-29T04:18:05;1.60;;;0.73;;
23390;SDS011;11868;45.606;5.302;2022-09-29T04:20:31;1.80;;;0.80;;
23390;SDS011;11868;45.606;5.302;2022-09-29T04:22:56;1.00;;;0.60;;
23390;SDS011;11868;45.606;5.302;2022-09-29T04:25:22;3.60;;;0.80;;
23390;SDS011;11868;45.606;5.302;2022-09-29T04:27:47;0.85;;;0.55;;
23390;SDS011;11868;45.606;5.302;2022-09-29T04:30:13;1.42;;;0.60;;
23390;SDS011;11868;45.606;5.302;2022-09-29T04:32:38;1.30;;;0.50;;
23390;SDS011;11868;45.606;5.302;2022-09-29T04:35:03;1.17;;;0.50;;
23390;SDS011;11868;45.606;5.302;2022-09-29T04:37:29;1.85;;;0.60;;
23390;SDS011;11868;45.606;5.302;2022-09-29T04:39:55;1.48;;;0.55;;
23390;SDS011;11868;45.606;5.302;2022-09-29T04:42:21;0.73;;;0.60;;
23390;SDS011;11868;45.606;5.302;2022-09-29T04:44:46;2.15;;;0.60;;
23390;SDS011;11868;45.606;5.302;2022-09-29T04:47:11;0.95;;;0.60;;
23390;SDS011;11868;45.606;5.302;2022-09-29T04:49:37;3.17;;;0.70;;
23390;SDS011;11868;45.606;5.302;2022-09-29T04:52:03;1.38;;;0.60;;
23390;SDS011;11868;45.606;5.302;2022-09-29T04:54:29;0.80;;;0.68;;
23390;SDS011;11868;45.606;5.302;2022-09-29T04:56:58;2.15;;;0.70;;
23390;SDS011;11868;45.606;5.302;2022-09-29T04:59:23;1.85;;;0.63;;
23390;SDS011;11868;45.606;5.302;2022-09-29T05:01:49;1.38;;;0.50;;
23390;SDS011;11868;45.606;5.302;2022-09-29T05:04:14;1.02;;;0.60;;
23390;SDS011;11868;45.606;5.302;2022-09-29T05:06:40;0.75;;;0.50;;
23390;SDS011;11868;45.606;5.302;2022-09-29T05:09:05;2.85;;;0.50;;
23390;SDS011;11868;45.606;5.302;2022-09-29T05:11:31;1.65;;;0.60;;
23390;SDS011;11868;45.606;5.302;2022-09-29T05:13:56;3.50;;;0.85;;
23390;SDS011;11868;45.606;5.302;2022-09-29T05:16:22;0.68;;;0.57;;
23390;SDS011;11868;45.606;5.302;2022-09-29T05:18:48;0.52;;;0.50;;
23390;SDS011;11868;45.606;5.302;2022-09-29T05:21:14;0.77;;;0.70;;
23390;SDS011;11868;45.606;5.302;2022-09-29T05:23:39;1.88;;;0.60;;
23390;SDS011;11868;45.606;5.302;2022-09-29T05:26:06;0.52;;;0.52;;
23390;SDS011;11868;45.606;5.302;2022-09-29T05:28:35;3.10;;;0.60;;
23390;SDS011;11868;45.606;5.302;2022-09-29T05:31:01;3.15;;;0.50;;
23390;SDS011;11868;45.606;5.302;2022-09-29T05:33:28;3.15;;;0.70;;
23390;SDS011;11868;45.606;5.302;2022-09-29T05:35:53;0.80;;;0.80;;
23390;SDS011;11868;45.606;5.302;2022-09-29T05:38:19;2.58;;;0.55;;
23390;SDS011;11868;45.606;5.302;2022-09-29T05:40:44;0.50;;;0.50;;
23390;SDS011;11868;45.606;5.302;2022-09-29T05:43:10;0.70;;;0.50;;
23390;SDS011;11868;45.606;5.302;2022-09-29T05:45:35;2.67;;;0.57;;
23390;SDS011;11868;45.606;5.302;2022-09-29T05:48:00;5.80;;;0.70;;
23390;SDS011;11868;45.606;5.302;2022-09-29T05:50:26;9.57;;;0.80;;
23390;SDS011;11868;45.606;5.302;2022-09-29T05:52:51;0.95;;;0.57;;
23390;SDS011;11868;45.606;5.302;2022-09-29T05:55:17;4.75;;;0.70;;
23390;SDS011;11868;45.606;5.302;2022-09-29T05:57:46;0.70;;;0.65;;
23390;SDS011;11868;45.606;5.302;2022-09-29T06:02:37;1.45;;;0.70;;
23390;SDS011;11868;45.606;5.302;2022-09-29T06:05:02;3.92;;;0.90;;
23390;SDS011;11868;45.606;5.302;2022-09-29T06:07:28;3.38;;;0.80;;
23390;SDS011;11868;45.606;5.302;2022-09-29T06:09:53;3.30;;;0.80;;
23390;SDS011;11868;45.606;5.302;2022-09-29T06:12:18;2.22;;;0.70;;
23390;SDS011;11868;45.606;5.302;2022-09-29T06:14:44;1.02;;;0.70;;
23390;SDS011;11868;45.606;5.302;2022-09-29T06:17:09;3.00;;;0.80;;
23390;SDS011;11868;45.606;5.302;2022-09-29T06:19:34;3.03;;;1.20;;
23390;SDS011;11868;45.606;5.302;2022-09-29T06:22:00;1.00;;;1.00;;
23390;SDS011;11868;45.606;5.302;2022-09-29T06:24:25;3.00;;;1.02;;
23390;SDS011;11868;45.606;5.302;2022-09-29T06:26:50;1.58;;;0.77;;
23390;SDS011;11868;45.606;5.302;2022-09-29T06:29:16;1.48;;;0.85;;
23390;SDS011;11868;45.606;5.302;2022-09-29T06:31:41;1.20;;;0.85;;
23390;SDS011;11868;45.606;5.302;2022-09-29T06:34:07;1.52;;;0.75;;
23390;SDS011;11868;45.606;5.302;2022-09-29T06:36:43;2.65;;;0.60;;
23390;SDS011;11868;45.606;5.302;2022-09-29T06:39:27;1.02;;;0.60;;
23390;SDS011;11868;45.606;5.302;2022-09-29T06:41:52;1.75;;;0.60;;
23390;SDS011;11868;45.606;5.302;2022-09-29T06:44:21;1.20;;;0.70;;
23390;SDS011;11868;45.606;5.302;2022-09-29T06:46:52;1.70;;;1.05;;
23390;SDS011;11868;45.606;5.302;2022-09-29T06:49:18;3.47;;;0.90;;
23390;SDS011;11868;45.606;5.302;2022-09-29T06:51:43;5.85;;;0.80;;
23390;SDS011;11868;45.606;5.302;2022-09-29T06:54:10;2.17;;;0.93;;
23390;SDS011;11868;45.606;5.302;2022-09-29T06:56:36;2.83;;;0.90;;
23390;SDS011;11868;45.606;5.302;2022-09-29T06:59:01;3.50;;;1.02;;
23390;SDS011;11868;45.606;5.302;2022-09-29T07:01:26;3.67;;;0.80;;
23390;SDS011;11868;45.606;5.302;2022-09-29T07:03:52;7.03;;;2.53;;
23390;SDS011;11868;45.606;5.302;2022-09-29T07:06:17;5.82;;;2.22;;
23390;SDS011;11868;45.606;5.302;2022-09-29T07:08:42;5.22;;;2.80;;
23390;SDS011;11868;45.606;5.302;2022-09-29T07:11:08;7.20;;;3.00;;
23390;SDS011;11868;45.606;5.302;2022-09-29T07:13:34;4.93;;;2.47;;
23390;SDS011;11868;45.606;5.302;2022-09-29T07:16:07;5.97;;;2.33;;
23390;SDS011;11868;45.606;5.302;2022-09-29T07:18:34;7.28;;;2.17;;
23390;SDS011;11868;45.606;5.302;2022-09-29T07:21:06;10.82;;;2.30;;
23390;SDS011;11868;45.606;5.302;2022-09-29T07:23:34;3.83;;;1.90;;
23390;SDS011;11868;45.606;5.302;2022-09-29T07:26:00;3.88;;;1.60;;
23390;SDS011;11868;45.606;5.302;2022-09-29T07:28:26;3.75;;;1.42;;
23390;SDS011;11868;45.606;5.302;2022-09-29T07:31:09;7.45;;;1.05;;
23390;SDS011;11868;45.606;5.302;2022-09-29T07:33:36;1.75;;;1.00;;
23390;SDS011;11868;45.606;5.302;2022-09-29T07:36:02;2.13;;;0.85;;
23390;SDS011;11868;45.606;5.302;2022-09-29T07:38:28;2.22;;;1.13;;
23390;SDS011;11868;45.606;5.302;2022-09-29T07:40:54;3.88;;;1.30;;
23390;SDS011;11868;45.606;5.302;2022-09-29T07:43:23;5.13;;;1.20;;
23390;SDS011;11868;45.606;5.302;2022-09-29T07:45:49;1.25;;;1.15;;
23390;SDS011;11868;45.606;5.302;2022-09-29T07:48:15;3.40;;;1.10;;
23390;SDS011;11868;45.606;5.302;2022-09-29T07:50:41;2.22;;;0.98;;
23390;SDS011;11868;45.606;5.302;2022-09-29T07:53:07;5.07;;;1.30;;
23390;SDS011;11868;45.606;5.302;2022-09-29T07:55:33;2.05;;;1.05;;
23390;SDS011;11868;45.606;5.302;2022-09-29T07:57:58;2.35;;;1.00;;
23390;SDS011;11868;45.606;5.302;2022-09-29T08:00:25;2.67;;;1.38;;
23390;SDS011;11868;45.606;5.302;2022-09-29T08:02:50;2.15;;;1.30;;
23390;SDS011;11868;45.606;5.302;2022-09-29T08:05:15;2.45;;;1.25;;
23390;SDS011;11868;45.606;5.302;2022-09-29T08:07:42;5.05;;;1.40;;
23390;SDS011;11868;45.606;5.302;2022-09-29T08:10:07;3.78;;;1.00;;
23390;SDS011;11868;45.606;5.302;2022-09-29T08:12:32;3.22;;;1.42;;
23390;SDS011;11868;45.606;5.302;2022-09-29T08:14:58;3.10;;;1.23;;
23390;SDS011;11868;45.606;5.302;2022-09-29T08:17:23;2.97;;;2.38;;
23390;SDS011;11868;45.606;5.302;2022-09-29T08:19:48;4.07;;;1.90;;
23390;SDS011;11868;45.606;5.302;2022-09-29T08:22:14;1.45;;;1.20;;
23390;SDS011;11868;45.606;5.302;2022-09-29T08:24:39;2.20;;;1.58;;
23390;SDS011;11868;45.606;5.302;2022-09-29T08:27:05;5.72;;;1.55;;
23390;SDS011;11868;45.606;5.302;2022-09-29T08:29:31;4.07;;;2.60;;
23390;SDS011;11868;45.606;5.302;2022-09-29T08:31:57;6.97;;;4.00;;
23390;SDS011;11868;45.606;5.302;2022-09-29T08:34:22;5.78;;;2.92;;
23390;SDS011;11868;45.606;5.302;2022-09-29T08:36:47;2.97;;;2.38;;
23390;SDS011;11868;45.606;5.302;2022-09-29T08:39:13;4.30;;;2.78;;
23390;SDS011;11868;45.606;5.302;2022-09-29T08:41:50;5.82;;;2.85;;
23390;SDS011;11868;45.606;5.302;2022-09-29T08:46:45;5.38;;;3.65;;
23390;SDS011;11868;45.606;5.302;2022-09-29T08:49:17;4.28;;;2.47;;
23390;SDS011;11868;45.606;5.302;2022-09-29T08:51:47;2.67;;;1.90;;
23390;SDS011;11868;45.606;5.302;2022-09-29T08:54:26;3.42;;;1.27;;
23390;SDS011;11868;45.606;5.302;2022-09-29T08:56:55;2.65;;;1.23;;
23390;SDS011;11868;45.606;5.302;2022-09-29T08:59:22;3.00;;;1.40;;
23390;SDS011;11868;45.606;5.302;2022-09-29T09:07:33;6.03;;;1.40;;
23390;SDS011;11868;45.606;5.302;2022-09-29T09:25:58;1.60;;;1.20;;
23390;SDS011;11868;45.606;5.302;2022-09-29T09:28:26;3.23;;;1.50;;
23390;SDS011;11868;45.606;5.302;2022-09-29T09:31:18;1.73;;;1.40;;
23390;SDS011;11868;45.606;5.302;2022-09-29T09:36:33;3.10;;;1.27;;
23390;SDS011;11868;45.606;5.302;2022-09-29T09:39:02;3.22;;;1.52;;
23390;SDS011;11868;45.606;5.302;2022-09-29T09:41:30;2.28;;;1.10;;
23390;SDS011;11868;45.606;5.302;2022-09-29T09:44:20;4.25;;;1.30;;
23390;SDS011;11868;45.606;5.302;2022-09-29T09:49:18;6.35;;;1.70;;
23390;SDS011;11868;45.606;5.302;2022-09-29T09:52:03;3.60;;;1.83;;
23390;SDS011;11868;45.606;5.302;2022-09-29T09:54:36;3.50;;;1.50;;
23390;SDS011;11868;45.606;5.302;2022-09-29T09:59:36;4.80;;;1.70;;
23390;SDS011;11868;45.606;5.302;2022-09-29T10:02:09;6.32;;;1.80;;
23390;SDS011;11868;45.606;5.302;2022-09-29T10:04:40;2.70;;;1.45;;
23390;SDS011;11868;45.606;5.302;2022-09-29T10:07:06;2.53;;;1.23;;
23390;SDS011;11868;45.606;5.302;2022-09-29T10:09:31;3.53;;;1.38;;
23390;SDS011;11868;45.606;5.302;2022-09-29T10:11:57;1.35;;;1.05;;
23390;SDS011;11868;45.606;5.302;2022-09-29T10:14:23;2.97;;;1.02;;
23390;SDS011;11868;45.606;5.302;2022-09-29T10:16:53;2.30;;;1.58;;
23390;SDS011;11868;45.606;5.302;2022-09-29T10:19:21;2.60;;;1.00;;
23390;SDS011;11868;45.606;5.302;2022-09-29T10:21:47;3.03;;;1.27;;
23390;SDS011;11868;45.606;5.302;2022-09-29T10:26:52;2.20;;;1.17;;
23390;SDS011;11868;45.606;5.302;2022-09-29T10:32:12;1.63;;;1.13;;
23390;SDS011;11868;45.606;5.302;2022-09-29T10:34:52;2.83;;;1.20;;
23390;SDS011;11868;45.606;5.302;2022-09-29T10:37:37;2.53;;;0.85;;
23390;SDS011;11868;45.606;5.302;2022-09-29T10:42:37;3.90;;;1.23;;
23390;SDS011;11868;45.606;5.302;2022-09-29T10:45:45;2.85;;;1.20;;
23390;SDS011;11868;45.606;5.302;2022-09-29T10:50:22;4.78;;;1.00;;
23390;SDS011;11868;45.606;5.302;2022-09-29T10:52:53;1.17;;;0.73;;
23390;SDS011;11868;45.606;5.302;2022-09-29T10:55:21;2.22;;;0.98;;
23390;SDS011;11868;45.606;5.302;2022-09-29T10:57:48;3.40;;;1.30;;
23390;SDS011;11868;45.606;5.302;2022-09-29T11:00:33;4.55;;;1.17;;
23390;SDS011;11868;45.606;5.302;2022-09-29T11:03:13;3.70;;;1.30;;
23390;SDS011;11868;45.606;5.302;2022-09-29T11:11:31;2.95;;;1.00;;
23390;SDS011;11868;45.606;5.302;2022-09-29T11:14:03;3.60;;;1.10;;
23390;SDS011;11868;45.606;5.302;2022-09-29T11:16:38;1.40;;;0.90;;
23390;SDS011;11868;45.606;5.302;2022-09-29T11:19:08;2.40;;;0.80;;
23390;SDS011;11868;45.606;5.302;2022-09-29T11:26:36;1.80;;;0.98;;
23390;SDS011;11868;45.606;5.302;2022-09-29T11:42:08;1.63;;;0.75;;
23390;SDS011;11868;45.606;5.302;2022-09-29T11:47:28;4.60;;;1.20;;
23390;SDS011;11868;45.606;5.302;2022-09-29T12:00:53;4.65;;;1.10;;
23390;SDS011;11868;45.606;5.302;2022-09-29T12:14:56;4.00;;;0.95;;
23390;SDS011;11868;45.606;5.302;2022-09-29T12:17:34;2.95;;;0.80;;
23390;SDS011;11868;45.606;5.302;2022-09-29T12:20:05;3.47;;;1.00;;
23390;SDS011;11868;45.606;5.302;2022-09-29T12:22:38;2.05;;;0.88;;
23390;SDS011;11868;45.606;5.302;2022-09-29T12:25:04;3.80;;;1.00;;
23390;SDS011;11868;45.606;5.302;2022-09-29T12:27:37;3.38;;;1.20;;
23390;SDS011;11868;45.606;5.302;2022-09-29T12:30:05;1.92;;;0.90;;
23390;SDS011;11868;45.606;5.302;2022-09-29T12:32:50;3.80;;;1.40;;
23390;SDS011;11868;45.606;5.302;2022-09-29T12:38:27;4.05;;;1.20;;
23390;SDS011;11868;45.606;5.302;2022-09-29T12:43:30;1.77;;;1.05;;
23390;SDS011;11868;45.606;5.302;2022-09-29T12:45:59;2.75;;;1.00;;
23390;SDS011;11868;45.606;5.302;2022-09-29T12:51:34;5.25;;;1.20;;
23390;SDS011;11868;45.606;5.302;2022-09-29T12:54:05;3.28;;;1.20;;
23390;SDS011;11868;45.606;5.302;2022-09-29T12:56:37;2.45;;;1.02;;
23390;SDS011;11868;45.606;5.302;2022-09-29T13:01:49;3.10;;;1.08;;
23390;SDS011;11868;45.606;5.302;2022-09-29T13:12:28;3.17;;;1.07;;
23390;SDS011;11868;45.606;5.302;2022-09-29T13:23:41;2.30;;;0.85;;
23390;SDS011;11868;45.606;5.302;2022-09-29T13:28:44;6.45;;;1.00;;
23390;SDS011;11868;45.606;5.302;2022-09-29T13:31:22;4.13;;;1.13;;
23390;SDS011;11868;45.606;5.302;2022-09-29T13:33:53;2.85;;;1.17;;
23390;SDS011;11868;45.606;5.302;2022-09-29T13:36:24;2.95;;;0.98;;
23390;SDS011;11868;45.606;5.302;2022-09-29T13:39:00;6.13;;;1.50;;
23390;SDS011;11868;45.606;5.302;2022-09-29T13:48:51;3.13;;;0.95;;
23390;SDS011;11868;45.606;5.302;2022-09-29T13:51:23;3.10;;;0.85;;
23390;SDS011;11868;45.606;5.302;2022-09-29T13:56:50;3.95;;;1.10;;
23390;SDS011;11868;45.606;5.302;2022-09-29T13:59:23;8.23;;;1.10;;
23390;SDS011;11868;45.606;5.302;2022-09-29T14:01:50;5.82;;;1.17;;
23390;SDS011;11868;45.606;5.302;2022-09-29T14:07:07;2.67;;;1.02;;
23390;SDS011;11868;45.606;5.302;2022-09-29T14:09:37;4.30;;;1.25;;
23390;SDS011;11868;45.606;5.302;2022-09-29T14:12:20;1.98;;;0.98;;
23390;SDS011;11868;45.606;5.302;2022-09-29T14:14:53;1.85;;;0.82;;
23390;SDS011;11868;45.606;5.302;2022-09-29T14:20:07;3.22;;;1.00;;
23390;SDS011;11868;45.606;5.302;2022-09-29T14:27:38;2.17;;;0.90;;
23390;SDS011;11868;45.606;5.302;2022-09-29T14:35:17;6.93;;;0.90;;
23390;SDS011;11868;45.606;5.302;2022-09-29T14:37:45;6.37;;;0.87;;
23390;SDS011;11868;45.606;5.302;2022-09-29T14:40:17;2.88;;;0.70;;
23390;SDS011;11868;45.606;5.302;2022-09-29T14:49:11;3.45;;;0.90;;
23390;SDS011;11868;45.606;5.302;2022-09-29T15:00:19;0.70;;;0.60;;
23390;SDS011;11868;45.606;5.302;2022-09-29T15:02:48;0.93;;;0.70;;
23390;SDS011;11868;45.606;5.302;2022-09-29T15:05:31;1.65;;;0.73;;
23390;SDS011;11868;45.606;5.302;2022-09-29T15:07:59;0.70;;;0.52;;
23390;SDS011;11868;45.606;5.302;2022-09-29T15:10:26;3.30;;;0.90;;
23390;SDS011;11868;45.606;5.302;2022-09-29T15:15:54;4.10;;;0.95;;
23390;SDS011;11868;45.606;5.302;2022-09-29T15:20:56;2.33;;;0.82;;
23390;SDS011;11868;45.606;5.302;2022-09-29T15:25:53;1.40;;;0.77;;
23390;SDS011;11868;45.606;5.302;2022-09-29T15:28:20;3.33;;;0.80;;
23390;SDS011;11868;45.606;5.302;2022-09-29T15:30:51;2.92;;;0.75;;
23390;SDS011;11868;45.606;5.302;2022-09-29T15:33:24;5.38;;;1.00;;
23390;SDS011;11868;45.606;5.302;2022-09-29T15:35:58;3.00;;;0.70;;
23390;SDS011;11868;45.606;5.302;2022-09-29T15:40:58;1.83;;;0.60;;
23390;SDS011;11868;45.606;5.302;2022-09-29T15:43:29;0.70;;;0.60;;
23390;SDS011;11868;45.606;5.302;2022-09-29T15:46:11;3.38;;;0.60;;
23390;SDS011;11868;45.606;5.302;2022-09-29T15:48:40;0.77;;;0.50;;
23390;SDS011;11868;45.606;5.302;2022-09-29T15:51:08;0.70;;;0.70;;
23390;SDS011;11868;45.606;5.302;2022-09-29T15:53:41;1.88;;;0.65;;
23390;SDS011;11868;45.606;5.302;2022-09-29T15:56:09;0.75;;;0.50;;
23390;SDS011;11868;45.606;5.302;2022-09-29T15:58:35;0.85;;;0.60;;
23390;SDS011;11868;45.606;5.302;2022-09-29T16:01:04;2.28;;;0.70;;
23390;SDS011;11868;45.606;5.302;2022-09-29T16:08:51;1.30;;;0.50;;
23390;SDS011;11868;45.606;5.302;2022-09-29T16:11:26;4.53;;;0.65;;
23390;SDS011;11868;45.606;5.302;2022-09-29T16:14:02;6.18;;;0.57;;
23390;SDS011;11868;45.606;5.302;2022-09-29T16:16:33;4.20;;;0.70;;
23390;SDS011;11868;45.606;5.302;2022-09-29T16:19:46;2.55;;;0.57;;
23390;SDS011;11868;45.606;5.302;2022-09-29T16:21:56;0.40;;;0.40;;
23390;SDS011;11868;45.606;5.302;2022-09-29T16:24:26;2.13;;;0.70;;
23390;SDS011;11868;45.606;5.302;2022-09-29T16:26:54;2.50;;;0.70;;
23390;SDS011;11868;45.606;5.302;2022-09-29T16:31:46;1.45;;;0.63;;
23390;SDS011;11868;45.606;5.302;2022-09-29T16:34:22;3.78;;;0.80;;
23390;SDS011;11868;45.606;5.302;2022-09-29T16:36:51;3.88;;;0.75;;
23390;SDS011;11868;45.606;5.302;2022-09-29T16:39:19;2.05;;;0.70;;
23390;SDS011;11868;45.606;5.302;2022-09-29T16:41:50;2.33;;;0.70;;
23390;SDS011;11868;45.606;5.302;2022-09-29T16:44:29;1.80;;;0.68;;
23390;SDS011;11868;45.606;5.302;2022-09-29T16:49:34;5.30;;;0.80;;
23390;SDS011;11868;45.606;5.302;2022-09-29T16:52:02;1.48;;;0.60;;
23390;SDS011;11868;45.606;5.302;2022-09-29T16:54:38;1.38;;;0.60;;
23390;SDS011;11868;45.606;5.302;2022-09-29T16:59:42;0.40;;;0.40;;
23390;SDS011;11868;45.606;5.302;2022-09-29T17:02:08;1.10;;;0.73;;
23390;SDS011;11868;45.606;5.302;2022-09-29T17:04:34;2.80;;;0.70;;
23390;SDS011;11868;45.606;5.302;2022-09-29T17:07:00;4.53;;;0.75;;
23390;SDS011;11868;45.606;5.302;2022-09-29T17:09:25;3.47;;;0.73;;
23390;SDS011;11868;45.606;5.302;2022-09-29T17:11:51;1.52;;;0.70;;
23390;SDS011;11868;45.606;5.302;2022-09-29T17:14:16;4.57;;;0.70;;
23390;SDS011;11868;45.606;5.302;2022-09-29T17:16:42;3.63;;;0.73;;
23390;SDS011;11868;45.606;5.302;2022-09-29T17:19:09;2.13;;;0.60;;
23390;SDS011;11868;45.606;5.302;2022-09-29T17:21:35;3.50;;;0.68;;
23390;SDS011;11868;45.606;5.302;2022-09-29T17:24:01;1.67;;;0.68;;
23390;SDS011;11868;45.606;5.302;2022-09-29T17:26:35;5.05;;;0.77;;
23390;SDS011;11868;45.606;5.302;2022-09-29T17:29:20;1.08;;;0.80;;
23390;SDS011;11868;45.606;5.302;2022-09-29T17:31:46;1.60;;;0.90;;
23390;SDS011;11868;45.606;5.302;2022-09-29T17:34:11;2.65;;;0.80;;
23390;SDS011;11868;45.606;5.302;2022-09-29T17:36:36;6.43;;;0.80;;
23390;SDS011;11868;45.606;5.302;2022-09-29T17:39:02;1.65;;;0.80;;
23390;SDS011;11868;45.606;5.302;2022-09-29T17:41:28;1.98;;;1.20;;
23390;SDS011;11868;45.606;5.302;2022-09-29T17:43:53;4.32;;;1.88;;
23390;SDS011;11868;45.606;5.302;2022-09-29T17:46:19;3.38;;;2.03;;
23390;SDS011;11868;45.606;5.302;2022-09-29T17:48:44;4.53;;;1.90;;
23390;SDS011;11868;45.606;5.302;2022-09-29T17:51:13;3.97;;;2.17;;
23390;SDS011;11868;45.606;5.302;2022-09-29T17:53:42;2.33;;;1.85;;
23390;SDS011;11868;45.606;5.302;2022-09-29T17:56:23;3.88;;;2.28;;
23390;SDS011;11868;45.606;5.302;2022-09-29T17:58:56;6.28;;;2.05;;
23390;SDS011;11868;45.606;5.302;2022-09-29T18:01:27;4.68;;;2.05;;
23390;SDS011;11868;45.606;5.302;2022-09-29T18:03:52;2.80;;;2.13;;
23390;SDS011;11868;45.606;5.302;2022-09-29T18:06:21;7.25;;;1.92;;
23390;SDS011;11868;45.606;5.302;2022-09-29T18:08:49;6.05;;;1.85;;
23390;SDS011;11868;45.606;5.302;2022-09-29T18:11:15;4.25;;;2.03;;
23390;SDS011;11868;45.606;5.302;2022-09-29T18:13:42;4.35;;;2.25;;
23390;SDS011;11868;45.606;5.302;2022-09-29T18:16:09;4.45;;;1.80;;
23390;SDS011;11868;45.606;5.302;2022-09-29T18:18:39;3.05;;;1.80;;
23390;SDS011;11868;45.606;5.302;2022-09-29T18:21:05;2.80;;;1.85;;
23390;SDS011;11868;45.606;5.302;2022-09-29T18:23:31;3.65;;;1.65;;
23390;SDS011;11868;45.606;5.302;2022-09-29T18:25:58;2.70;;;1.40;;
23390;SDS011;11868;45.606;5.302;2022-09-29T18:28:24;2.75;;;1.55;;
23390;SDS011;11868;45.606;5.302;2022-09-29T18:30:54;3.45;;;1.70;;
23390;SDS011;11868;45.606;5.302;2022-09-29T18:33:22;2.45;;;1.40;;
23390;SDS011;11868;45.606;5.302;2022-09-29T18:35:51;2.83;;;1.90;;
23390;SDS011;11868;45.606;5.302;2022-09-29T18:38:17;4.38;;;1.70;;
23390;SDS011;11868;45.606;5.302;2022-09-29T18:40:42;3.97;;;1.70;;
23390;SDS011;11868;45.606;5.302;2022-09-29T18:43:09;4.95;;;1.45;;
23390;SDS011;11868;45.606;5.302;2022-09-29T18:45:36;3.25;;;1.83;;
23390;SDS011;11868;45.606;5.302;2022-09-29T18:48:03;2.65;;;1.65;;
23390;SDS011;11868;45.606;5.302;2022-09-29T18:50:30;3.65;;;1.50;;